< < Back
Terminal Aerodrome Forecast


Current Version              Previous Versions:   1  2  3  4  5  6  7  8  9  

Terminal Aerodrome Forecast

014
FTUS42 KTAE 040531
TAFTLH
TAF
KTLH 040531Z 0406/0506 00000KT P6SM SCT250
     FM041500 VRB05KT P6SM SCT050 BKN250
     FM041900 26005KT P6SM VCTS SCT050CB BKN100=

Latest METAR

610
SAUS80 KWBC 041500 RRA
MTRTLH
METAR KTLH 041453Z 01006KT 10SM SCT250 31/22 A3000 RMK AO2 SLP157
T03110222 51004 $


USA.gov is the U.S. government's official web portal to all federal, state and local government web resources and services.